Cloverdale, California
Current Conditions -  °F | °C
As of 10:53 AM on Tuesday 21 Oct 2014 (Local Time) from KSTS Reporting Station
Clear Clear  
Wind Chill: 62°   Ceiling: Unl
Heat Index: 62°   Visibility: 10mi
Dew Point: 49°   Wind: 0mph
Humidity: 62%   Direction: NA
Pressure: 30.1"   Gusts: NA
Location:  38.81°N, 123.02°W
Report Text: KSTS 211753Z 00000KT 10SM CLR 17/09 A3010 RMK AO2 SLP186 T01670094 10167 20067 58002
Loading
Personal Weather Stations






























Interactive Weather Map
Tropical Storm Tracking
New forecast layout! Learn more

10-Day Weather Forecast

Advertisements
Track Severe Weather on mobile